Terminal Aerodrome Forecast
Issued by NWS

Home | Current Version | Previous Version | Text Only | Print | Product List | Glossary On
Versions: 1 2 3 4 5 6 7 8 9 10 11 12 13 14 15 16 17 18 19 20 21 22 23
000
FTUS41 KBTV 211700
TAFSLK
TAF
KSLK 211725Z 2118/2218 06007KT P6SM VCSH BKN005 OVC040
      TEMPO 2118/2120 5SM -SHRA BR OVC005
     FM212000 06007KT P6SM VCSH OVC005
      TEMPO 2120/2124 SCT005 OVC025
     FM220000 06006KT P6SM VCSH OVC015=

USA.gov is the U.S. government's official web portal to all federal, state and local government web resources and services.